createdAt,value
2022-12-22T00:01:59.591Z,100455.91
2022-12-22T00:09:52.215Z,100469.13
2022-12-22T00:17:46.098Z,100458.78
2022-12-22T00:25:38.889Z,100453.44
2022-12-22T00:33:33.368Z,100437.22
2022-12-22T00:41:25.967Z,100442.47
2022-12-22T00:49:17.958Z,100432.72
2022-12-22T00:57:11.150Z,100426.78
2022-12-22T01:05:02.629Z,100413.75
2022-12-22T01:12:57.574Z,100424.53
2022-12-22T01:20:50.028Z,100412.09
2022-12-22T01:28:43.260Z,100395.00
2022-12-22T01:36:35.430Z,100385.22
2022-12-22T01:44:34.240Z,100385.06
2022-12-22T01:52:27.995Z,100370.13
2022-12-22T02:00:21.016Z,100360.41
2022-12-22T02:08:25.282Z,100357.13
2022-12-22T02:16:24.740Z,100340.38
2022-12-22T02:24:33.445Z,100329.00
2022-12-22T02:32:26.346Z,100309.66
2022-12-22T02:40:24.926Z,100305.38
2022-12-22T02:48:23.704Z,100285.13
2022-12-22T02:56:21.849Z,100272.19
2022-12-22T03:04:14.964Z,100275.66
2022-12-22T03:12:06.284Z,100264.31
2022-12-22T03:19:58.951Z,100269.75
2022-12-22T03:27:32.992Z,100271.53
2022-12-22T03:35:10.029Z,100260.06
2022-12-22T03:43:01.485Z,100249.63
2022-12-22T03:50:36.652Z,100243.59
2022-12-22T03:58:10.580Z,100215.47
2022-12-22T04:05:47.226Z,100206.00
2022-12-22T04:13:21.424Z,100186.56
2022-12-22T04:20:56.665Z,100192.78
2022-12-22T04:28:30.624Z,100172.56
2022-12-22T04:36:07.195Z,100169.16
2022-12-22T04:43:41.014Z,100171.53
2022-12-22T04:51:16.578Z,100169.88
2022-12-22T04:58:50.457Z,100154.03
2022-12-22T05:06:26.740Z,100125.13
2022-12-22T05:14:06.811Z,100132.06
2022-12-22T05:21:42.595Z,100121.91
2022-12-22T05:29:16.587Z,100103.50
2022-12-22T05:36:51.839Z,100101.06
2022-12-22T05:44:25.784Z,100089.69
2022-12-22T05:52:01.212Z,100077.56
2022-12-22T05:59:35.271Z,100074.09
2022-12-22T06:07:11.091Z,100062.75
2022-12-22T06:14:44.974Z,100053.13
2022-12-22T06:22:20.235Z,100039.25
2022-12-22T06:29:54.090Z,100044.53
2022-12-22T06:37:29.515Z,100034.00
2022-12-22T06:45:03.602Z,100036.63
2022-12-22T06:52:40.920Z,100021.72
2022-12-22T07:00:15.916Z,100027.19
2022-12-22T07:07:52.412Z,100016.66
2022-12-22T07:15:26.351Z,100004.22
2022-12-22T07:23:01.712Z,100012.13
2022-12-22T07:30:36.812Z,99998.00
2022-12-22T07:38:12.431Z,99998.97
2022-12-22T07:45:46.432Z,99993.75
2022-12-22T07:53:21.880Z,99986.66
2022-12-22T08:00:59.044Z,99977.00
2022-12-22T08:08:35.776Z,99972.78
2022-12-22T08:16:11.662Z,99965.84
2022-12-22T08:23:46.952Z,99957.88
2022-12-22T08:31:21.977Z,99959.63
2022-12-22T08:38:57.868Z,99948.22
2022-12-22T08:46:31.823Z,99939.47
2022-12-22T08:54:07.487Z,99929.78
2022-12-22T09:01:44.751Z,99920.09
2022-12-22T09:09:21.066Z,99918.28
2022-12-22T09:16:55.167Z,99907.69
2022-12-22T09:24:30.696Z,99902.34
2022-12-22T09:32:04.836Z,99897.03
2022-12-22T09:39:40.427Z,99888.25
2022-12-22T09:47:19.048Z,99882.06
2022-12-22T09:54:54.391Z,99867.00
2022-12-22T10:02:37.698Z,99872.31
2022-12-22T10:10:25.556Z,99875.97
2022-12-22T10:18:13.496Z,99868.88
2022-12-22T10:34:10.720Z,99841.56
2022-12-22T10:41:50.189Z,99838.06
2022-12-22T10:49:26.258Z,99831.00
2022-12-22T10:57:25.031Z,99824.84
2022-12-22T11:05:04.455Z,99824.00
2022-12-22T11:12:52.465Z,99815.16
2022-12-22T11:20:34.710Z,99791.34
2022-12-22T11:28:29.653Z,99795.81
2022-12-22T11:36:05.971Z,99786.06
2022-12-22T11:43:55.608Z,99783.44
2022-12-22T11:51:44.647Z,99778.16
2022-12-22T11:59:41.071Z,99765.78
2022-12-22T12:07:26.402Z,99766.69
2022-12-22T12:15:16.538Z,99769.38
2022-12-22T12:23:07.346Z,99769.47
2022-12-22T12:30:52.412Z,99763.31
2022-12-22T12:46:55.337Z,99760.69
2022-12-22T12:54:40.688Z,99754.47
2022-12-22T13:02:42.069Z,99758.06
2022-12-22T13:10:21.828Z,99769.59
2022-12-22T13:17:58.418Z,99776.69
2022-12-22T13:25:43.441Z,99784.66
2022-12-22T13:33:22.097Z,99798.88
2022-12-22T13:40:56.976Z,99807.75
2022-12-22T13:48:43.543Z,99814.91
2022-12-22T13:56:21.931Z,99815.81
2022-12-22T14:04:03.595Z,99822.94
2022-12-22T14:11:42.869Z,99841.59
2022-12-22T14:19:26.138Z,99851.38
2022-12-22T14:27:00.345Z,99865.63
2022-12-22T14:34:36.331Z,99865.63
2022-12-22T14:42:15.272Z,99892.25
2022-12-22T14:49:53.933Z,99892.25
2022-12-22T14:57:33.910Z,99912.66
2022-12-22T15:05:14.917Z,99933.00
2022-12-22T15:12:50.544Z,99936.53
2022-12-22T15:20:38.726Z,99954.25
2022-12-22T15:28:13.318Z,99959.53
2022-12-22T15:35:49.059Z,99980.78
2022-12-22T15:43:55.704Z,99992.31
2022-12-22T15:51:23.820Z,99996.75
2022-12-22T15:58:58.065Z,100015.38
2022-12-22T16:06:33.451Z,100031.34
2022-12-22T16:14:08.210Z,100057.91
2022-12-22T16:21:46.886Z,100043.59
2022-12-22T16:29:20.845Z,100066.53
2022-12-22T16:36:56.196Z,100060.22
2022-12-22T16:44:30.155Z,100075.16
2022-12-22T16:52:05.760Z,100083.00
2022-12-22T16:59:43.084Z,100085.56
2022-12-22T17:07:19.256Z,100103.16
2022-12-22T17:14:54.826Z,100107.28
2022-12-22T17:22:33.031Z,100107.13
2022-12-22T17:30:18.093Z,100116.66
2022-12-22T17:37:54.174Z,100127.03
2022-12-22T17:45:28.612Z,100138.53
2022-12-22T17:53:05.407Z,100136.66
2022-12-22T18:00:39.341Z,100147.22
2022-12-22T18:08:18.835Z,100153.41
2022-12-22T18:15:53.244Z,100159.66
2022-12-22T18:23:32.775Z,100172.16
2022-12-22T18:31:07.162Z,100159.81
2022-12-22T18:38:42.720Z,100152.66
2022-12-22T18:46:16.960Z,100162.28
2022-12-22T18:53:54.895Z,100164.81
2022-12-22T19:01:29.294Z,100155.84
2022-12-22T19:09:04.639Z,100147.75
2022-12-22T19:16:38.588Z,100153.00
2022-12-22T19:24:14.475Z,100153.72
2022-12-22T19:31:48.346Z,100158.03
2022-12-22T19:39:23.906Z,100168.44
2022-12-22T19:47:00.381Z,100160.25
2022-12-22T19:54:36.039Z,100143.16
2022-12-22T20:02:26.543Z,100146.53
2022-12-22T20:10:02.026Z,100156.66
2022-12-22T20:17:35.793Z,100154.66
2022-12-22T20:25:16.273Z,100159.56
2022-12-22T20:32:50.452Z,100155.75
2022-12-22T20:40:28.759Z,100157.47
2022-12-22T20:48:02.577Z,100156.38
2022-12-22T20:55:39.074Z,100157.19
2022-12-22T21:03:13.204Z,100157.91
2022-12-22T21:10:50.385Z,100170.19
2022-12-22T21:18:25.335Z,100155.00
2022-12-22T21:26:00.744Z,100162.13
2022-12-22T21:33:34.556Z,100157.72
2022-12-22T21:41:09.835Z,100156.78
2022-12-22T21:48:43.812Z,100157.72
2022-12-22T21:56:20.347Z,100156.91
2022-12-22T22:03:54.201Z,100154.13
2022-12-22T22:11:29.441Z,100145.28
2022-12-22T22:19:03.395Z,100131.16
2022-12-22T22:26:39.781Z,100130.28
2022-12-22T22:34:13.622Z,100133.03
2022-12-22T22:41:48.982Z,100123.34
2022-12-22T22:49:28.253Z,100113.66
2022-12-22T22:57:04.421Z,100100.38
2022-12-22T23:04:38.290Z,100098.59
2022-12-22T23:12:13.560Z,100101.13
2022-12-22T23:19:47.421Z,100096.75
2022-12-22T23:27:23.684Z,100082.75
2022-12-22T23:34:57.640Z,100076.56
2022-12-22T23:42:32.772Z,100067.72
2022-12-22T23:50:07.935Z,100047.50
2022-12-22T23:57:43.257Z,100035.13
